sensor_id;sensor_type;location;lat;lon;timestamp;temperature;humidity
8892;DHT22;4482;54.332;10.118;2024-02-28T00:00:52;4.70;99.90
8892;DHT22;4482;54.332;10.118;2024-02-28T00:03:20;4.70;99.90
8892;DHT22;4482;54.332;10.118;2024-02-28T00:05:49;4.70;99.90
8892;DHT22;4482;54.332;10.118;2024-02-28T00:08:15;4.60;99.90
8892;DHT22;4482;54.332;10.118;2024-02-28T00:10:44;4.50;99.90
8892;DHT22;4482;54.332;10.118;2024-02-28T00:13:11;4.50;99.90
8892;DHT22;4482;54.332;10.118;2024-02-28T00:15:38;4.50;99.90
8892;DHT22;4482;54.332;10.118;2024-02-28T00:18:04;4.50;99.90
8892;DHT22;4482;54.332;10.118;2024-02-28T00:20:32;4.40;99.90
8892;DHT22;4482;54.332;10.118;2024-02-28T00:22:59;4.40;99.90
8892;DHT22;4482;54.332;10.118;2024-02-28T00:25:26;4.40;99.90
8892;DHT22;4482;54.332;10.118;2024-02-28T00:27:52;4.40;99.90
8892;DHT22;4482;54.332;10.118;2024-02-28T00:30:19;4.40;99.90
8892;DHT22;4482;54.332;10.118;2024-02-28T00:32:46;4.40;99.90
8892;DHT22;4482;54.332;10.118;2024-02-28T00:35:13;4.40;99.90
8892;DHT22;4482;54.332;10.118;2024-02-28T00:37:41;4.30;99.90
8892;DHT22;4482;54.332;10.118;2024-02-28T00:40:08;4.30;99.90
8892;DHT22;4482;54.332;10.118;2024-02-28T00:42:35;4.30;99.90
8892;DHT22;4482;54.332;10.118;2024-02-28T00:45:02;4.30;99.90
8892;DHT22;4482;54.332;10.118;2024-02-28T00:47:28;4.20;99.90
8892;DHT22;4482;54.332;10.118;2024-02-28T00:49:55;4.20;99.90
8892;DHT22;4482;54.332;10.118;2024-02-28T00:52:22;4.20;99.90
8892;DHT22;4482;54.332;10.118;2024-02-28T00:54:51;4.20;99.90
8892;DHT22;4482;54.332;10.118;2024-02-28T00:57:18;4.20;99.90
8892;DHT22;4482;54.332;10.118;2024-02-28T00:59:45;4.20;99.90
8892;DHT22;4482;54.332;10.118;2024-02-28T01:02:11;4.20;99.90
8892;DHT22;4482;54.332;10.118;2024-02-28T01:04:39;4.20;99.90
8892;DHT22;4482;54.332;10.118;2024-02-28T01:07:05;4.20;99.90
8892;DHT22;4482;54.332;10.118;2024-02-28T01:09:32;4.20;99.90
8892;DHT22;4482;54.332;10.118;2024-02-28T01:12:00;4.20;99.90
8892;DHT22;4482;54.332;10.118;2024-02-28T01:14:27;4.30;99.90
8892;DHT22;4482;54.332;10.118;2024-02-28T01:16:53;4.20;99.90
8892;DHT22;4482;54.332;10.118;2024-02-28T01:19:20;4.20;99.90
8892;DHT22;4482;54.332;10.118;2024-02-28T01:21:47;4.20;99.90
8892;DHT22;4482;54.332;10.118;2024-02-28T01:24:14;4.20;99.90
8892;DHT22;4482;54.332;10.118;2024-02-28T01:26:40;4.20;99.90
8892;DHT22;4482;54.332;10.118;2024-02-28T01:29:09;4.20;99.90
8892;DHT22;4482;54.332;10.118;2024-02-28T01:31:35;4.20;99.90
8892;DHT22;4482;54.332;10.118;2024-02-28T01:34:02;4.20;99.90
8892;DHT22;4482;54.332;10.118;2024-02-28T01:36:29;4.10;99.90
8892;DHT22;4482;54.332;10.118;2024-02-28T01:38:55;4.10;99.90
8892;DHT22;4482;54.332;10.118;2024-02-28T01:41:22;4.10;99.90
8892;DHT22;4482;54.332;10.118;2024-02-28T01:43:49;4.10;99.90
8892;DHT22;4482;54.332;10.118;2024-02-28T01:46:21;4.10;99.90
8892;DHT22;4482;54.332;10.118;2024-02-28T01:48:49;4.10;99.90
8892;DHT22;4482;54.332;10.118;2024-02-28T01:51:16;4.10;99.90
8892;DHT22;4482;54.332;10.118;2024-02-28T01:53:43;4.20;99.90
8892;DHT22;4482;54.332;10.118;2024-02-28T01:56:10;4.10;99.90
8892;DHT22;4482;54.332;10.118;2024-02-28T01:58:37;4.10;99.90
8892;DHT22;4482;54.332;10.118;2024-02-28T02:01:05;4.10;99.90
8892;DHT22;4482;54.332;10.118;2024-02-28T02:03:33;4.10;99.90
8892;DHT22;4482;54.332;10.118;2024-02-28T02:06:01;4.10;99.90
8892;DHT22;4482;54.332;10.118;2024-02-28T02:08:28;4.00;99.90
8892;DHT22;4482;54.332;10.118;2024-02-28T02:10:54;4.00;99.90
8892;DHT22;4482;54.332;10.118;2024-02-28T02:13:22;3.90;99.90
8892;DHT22;4482;54.332;10.118;2024-02-28T02:15:48;3.90;99.90
8892;DHT22;4482;54.332;10.118;2024-02-28T02:18:14;3.90;99.90
8892;DHT22;4482;54.332;10.118;2024-02-28T02:20:43;3.90;99.90
8892;DHT22;4482;54.332;10.118;2024-02-28T02:23:11;3.90;99.90
8892;DHT22;4482;54.332;10.118;2024-02-28T02:25:43;4.00;99.90
8892;DHT22;4482;54.332;10.118;2024-02-28T02:28:10;3.90;99.90
8892;DHT22;4482;54.332;10.118;2024-02-28T02:30:37;3.90;99.90
8892;DHT22;4482;54.332;10.118;2024-02-28T02:33:04;3.90;99.90
8892;DHT22;4482;54.332;10.118;2024-02-28T02:35:31;3.90;99.90
8892;DHT22;4482;54.332;10.118;2024-02-28T02:37:57;3.90;99.90
8892;DHT22;4482;54.332;10.118;2024-02-28T02:40:25;4.00;99.90
8892;DHT22;4482;54.332;10.118;2024-02-28T02:42:52;4.00;99.90
8892;DHT22;4482;54.332;10.118;2024-02-28T02:45:19;3.90;99.90
8892;DHT22;4482;54.332;10.118;2024-02-28T02:47:46;4.00;99.90
8892;DHT22;4482;54.332;10.118;2024-02-28T02:50:12;3.90;99.90
8892;DHT22;4482;54.332;10.118;2024-02-28T02:52:39;4.00;99.90
8892;DHT22;4482;54.332;10.118;2024-02-28T02:55:06;3.90;99.90
8892;DHT22;4482;54.332;10.118;2024-02-28T02:57:35;4.00;99.90
8892;DHT22;4482;54.332;10.118;2024-02-28T03:00:02;4.00;99.90
8892;DHT22;4482;54.332;10.118;2024-02-28T03:02:29;4.00;99.90
8892;DHT22;4482;54.332;10.118;2024-02-28T03:04:55;4.00;99.90
8892;DHT22;4482;54.332;10.118;2024-02-28T03:07:22;4.00;99.90
8892;DHT22;4482;54.332;10.118;2024-02-28T03:09:49;4.00;99.90
8892;DHT22;4482;54.332;10.118;2024-02-28T03:12:15;4.00;99.90
8892;DHT22;4482;54.332;10.118;2024-02-28T03:14:44;4.00;99.90
8892;DHT22;4482;54.332;10.118;2024-02-28T03:17:10;4.00;99.90
8892;DHT22;4482;54.332;10.118;2024-02-28T03:19:37;4.00;99.90
8892;DHT22;4482;54.332;10.118;2024-02-28T03:22:04;4.00;99.90
8892;DHT22;4482;54.332;10.118;2024-02-28T03:24:31;3.90;99.90
8892;DHT22;4482;54.332;10.118;2024-02-28T03:27:00;3.90;99.90
8892;DHT22;4482;54.332;10.118;2024-02-28T03:29:26;3.90;99.90
8892;DHT22;4482;54.332;10.118;2024-02-28T03:31:55;3.90;99.90
8892;DHT22;4482;54.332;10.118;2024-02-28T03:34:21;4.00;99.90
8892;DHT22;4482;54.332;10.118;2024-02-28T03:36:48;4.10;99.90
8892;DHT22;4482;54.332;10.118;2024-02-28T03:39:15;4.10;99.90
8892;DHT22;4482;54.332;10.118;2024-02-28T03:41:42;4.10;99.90
8892;DHT22;4482;54.332;10.118;2024-02-28T03:44:08;4.10;99.90
8892;DHT22;4482;54.332;10.118;2024-02-28T03:46:36;4.10;99.90
8892;DHT22;4482;54.332;10.118;2024-02-28T03:49:04;4.10;99.90
8892;DHT22;4482;54.332;10.118;2024-02-28T03:51:31;4.10;99.90
8892;DHT22;4482;54.332;10.118;2024-02-28T03:53:57;4.10;99.90
8892;DHT22;4482;54.332;10.118;2024-02-28T03:56:24;4.10;99.90
8892;DHT22;4482;54.332;10.118;2024-02-28T03:58:51;4.00;99.90
8892;DHT22;4482;54.332;10.118;2024-02-28T04:01:17;4.10;99.90
8892;DHT22;4482;54.332;10.118;2024-02-28T04:03:43;4.10;99.90
8892;DHT22;4482;54.332;10.118;2024-02-28T04:06:12;4.00;99.90
8892;DHT22;4482;54.332;10.118;2024-02-28T04:08:40;4.00;99.90
8892;DHT22;4482;54.332;10.118;2024-02-28T04:11:07;4.10;99.90
8892;DHT22;4482;54.332;10.118;2024-02-28T04:13:34;4.00;99.90
8892;DHT22;4482;54.332;10.118;2024-02-28T04:16:01;4.00;99.90
8892;DHT22;4482;54.332;10.118;2024-02-28T04:18:28;4.00;99.90
8892;DHT22;4482;54.332;10.118;2024-02-28T04:20:55;4.00;99.90
8892;DHT22;4482;54.332;10.118;2024-02-28T04:23:23;4.00;99.90
8892;DHT22;4482;54.332;10.118;2024-02-28T04:25:50;4.00;99.90
8892;DHT22;4482;54.332;10.118;2024-02-28T04:28:17;4.00;99.90
8892;DHT22;4482;54.332;10.118;2024-02-28T04:30:43;4.10;99.90
8892;DHT22;4482;54.332;10.118;2024-02-28T04:33:10;4.10;99.90
8892;DHT22;4482;54.332;10.118;2024-02-28T04:35:37;4.00;99.90
8892;DHT22;4482;54.332;10.118;2024-02-28T04:38:03;4.10;99.90
8892;DHT22;4482;54.332;10.118;2024-02-28T04:40:31;4.00;99.90
8892;DHT22;4482;54.332;10.118;2024-02-28T04:42:58;4.00;99.90
8892;DHT22;4482;54.332;10.118;2024-02-28T04:45:25;4.00;99.90
8892;DHT22;4482;54.332;10.118;2024-02-28T04:47:51;4.00;99.90
8892;DHT22;4482;54.332;10.118;2024-02-28T04:50:19;3.90;99.90
8892;DHT22;4482;54.332;10.118;2024-02-28T04:52:46;3.90;99.90
8892;DHT22;4482;54.332;10.118;2024-02-28T04:55:13;3.90;99.90
8892;DHT22;4482;54.332;10.118;2024-02-28T04:57:41;3.90;99.90
8892;DHT22;4482;54.332;10.118;2024-02-28T05:00:08;3.90;99.90
8892;DHT22;4482;54.332;10.118;2024-02-28T05:02:35;3.90;99.90
8892;DHT22;4482;54.332;10.118;2024-02-28T05:05:02;3.90;99.90
8892;DHT22;4482;54.332;10.118;2024-02-28T05:07:28;3.90;99.90
8892;DHT22;4482;54.332;10.118;2024-02-28T05:09:55;3.90;99.90
8892;DHT22;4482;54.332;10.118;2024-02-28T05:12:22;3.90;99.90
8892;DHT22;4482;54.332;10.118;2024-02-28T05:14:50;3.80;99.90
8892;DHT22;4482;54.332;10.118;2024-02-28T05:17:16;4.10;99.90
8892;DHT22;4482;54.332;10.118;2024-02-28T05:19:43;4.10;99.90
8892;DHT22;4482;54.332;10.118;2024-02-28T05:22:10;4.00;99.90
8892;DHT22;4482;54.332;10.118;2024-02-28T05:24:37;3.90;99.90
8892;DHT22;4482;54.332;10.118;2024-02-28T05:27:04;3.90;99.90
8892;DHT22;4482;54.332;10.118;2024-02-28T05:29:31;3.80;99.90
8892;DHT22;4482;54.332;10.118;2024-02-28T05:31:59;3.80;99.90
8892;DHT22;4482;54.332;10.118;2024-02-28T05:34:25;3.80;99.90
8892;DHT22;4482;54.332;10.118;2024-02-28T05:36:52;3.70;99.90
8892;DHT22;4482;54.332;10.118;2024-02-28T05:39:19;3.80;99.90
8892;DHT22;4482;54.332;10.118;2024-02-28T05:41:45;3.80;99.90
8892;DHT22;4482;54.332;10.118;2024-02-28T05:44:12;3.80;99.90
8892;DHT22;4482;54.332;10.118;2024-02-28T05:46:39;3.80;99.90
8892;DHT22;4482;54.332;10.118;2024-02-28T05:49:07;3.80;99.90
8892;DHT22;4482;54.332;10.118;2024-02-28T05:51:34;3.80;99.90
8892;DHT22;4482;54.332;10.118;2024-02-28T05:54:01;3.80;99.90
8892;DHT22;4482;54.332;10.118;2024-02-28T05:56:28;3.80;99.90
8892;DHT22;4482;54.332;10.118;2024-02-28T05:58:55;3.90;99.90
8892;DHT22;4482;54.332;10.118;2024-02-28T06:01:22;4.00;99.90
8892;DHT22;4482;54.332;10.118;2024-02-28T06:03:48;4.00;99.90
8892;DHT22;4482;54.332;10.118;2024-02-28T06:06:17;4.00;99.90
8892;DHT22;4482;54.332;10.118;2024-02-28T06:08:44;4.00;99.90
8892;DHT22;4482;54.332;10.118;2024-02-28T06:11:10;3.90;99.90
8892;DHT22;4482;54.332;10.118;2024-02-28T06:13:40;3.90;99.90
8892;DHT22;4482;54.332;10.118;2024-02-28T06:16:07;3.90;99.90
8892;DHT22;4482;54.332;10.118;2024-02-28T06:18:34;4.00;99.90
8892;DHT22;4482;54.332;10.118;2024-02-28T06:21:01;3.90;99.90
8892;DHT22;4482;54.332;10.118;2024-02-28T06:23:29;3.90;99.90
8892;DHT22;4482;54.332;10.118;2024-02-28T06:25:55;3.90;99.90
8892;DHT22;4482;54.332;10.118;2024-02-28T06:28:22;3.90;99.90
8892;DHT22;4482;54.332;10.118;2024-02-28T06:30:49;3.90;99.90
8892;DHT22;4482;54.332;10.118;2024-02-28T06:33:16;3.90;99.90
8892;DHT22;4482;54.332;10.118;2024-02-28T06:35:43;3.90;99.90
8892;DHT22;4482;54.332;10.118;2024-02-28T06:38:09;3.90;99.90
8892;DHT22;4482;54.332;10.118;2024-02-28T06:40:37;4.00;99.90
8892;DHT22;4482;54.332;10.118;2024-02-28T06:43:04;4.00;99.90
8892;DHT22;4482;54.332;10.118;2024-02-28T06:45:31;4.00;99.90
8892;DHT22;4482;54.332;10.118;2024-02-28T06:47:58;4.00;99.90
8892;DHT22;4482;54.332;10.118;2024-02-28T06:50:24;4.00;99.90
8892;DHT22;4482;54.332;10.118;2024-02-28T06:52:51;4.00;99.90
8892;DHT22;4482;54.332;10.118;2024-02-28T06:55:19;4.10;99.90
8892;DHT22;4482;54.332;10.118;2024-02-28T06:57:47;4.10;99.90
8892;DHT22;4482;54.332;10.118;2024-02-28T07:00:13;4.20;99.90
8892;DHT22;4482;54.332;10.118;2024-02-28T07:02:41;4.30;99.90
8892;DHT22;4482;54.332;10.118;2024-02-28T07:05:08;4.30;99.90
8892;DHT22;4482;54.332;10.118;2024-02-28T07:07:34;4.30;99.90
8892;DHT22;4482;54.332;10.118;2024-02-28T07:10:02;4.40;99.90
8892;DHT22;4482;54.332;10.118;2024-02-28T07:12:29;4.40;99.90
8892;DHT22;4482;54.332;10.118;2024-02-28T07:14:57;4.40;99.90
8892;DHT22;4482;54.332;10.118;2024-02-28T07:17:23;4.30;99.90
8892;DHT22;4482;54.332;10.118;2024-02-28T07:19:50;4.30;99.90
8892;DHT22;4482;54.332;10.118;2024-02-28T07:22:17;4.40;99.90
8892;DHT22;4482;54.332;10.118;2024-02-28T07:24:43;4.40;99.90
8892;DHT22;4482;54.332;10.118;2024-02-28T07:27:10;4.60;99.90
8892;DHT22;4482;54.332;10.118;2024-02-28T07:29:37;4.70;99.90
8892;DHT22;4482;54.332;10.118;2024-02-28T07:32:05;4.70;99.90
8892;DHT22;4482;54.332;10.118;2024-02-28T07:34:32;4.70;99.90
8892;DHT22;4482;54.332;10.118;2024-02-28T07:36:59;4.60;99.90
8892;DHT22;4482;54.332;10.118;2024-02-28T07:39:25;4.70;99.90
8892;DHT22;4482;54.332;10.118;2024-02-28T07:41:52;4.80;99.90
8892;DHT22;4482;54.332;10.118;2024-02-28T07:44:19;4.90;99.90
8892;DHT22;4482;54.332;10.118;2024-02-28T07:46:45;5.10;99.90
8892;DHT22;4482;54.332;10.118;2024-02-28T07:49:14;5.10;99.90
8892;DHT22;4482;54.332;10.118;2024-02-28T07:51:41;5.10;99.90
8892;DHT22;4482;54.332;10.118;2024-02-28T07:54:07;5.10;99.90
8892;DHT22;4482;54.332;10.118;2024-02-28T07:56:34;5.10;99.90
8892;DHT22;4482;54.332;10.118;2024-02-28T07:59:01;5.20;99.90
8892;DHT22;4482;54.332;10.118;2024-02-28T08:01:27;5.10;99.90
8892;DHT22;4482;54.332;10.118;2024-02-28T08:03:54;5.10;99.90
8892;DHT22;4482;54.332;10.118;2024-02-28T08:06:23;5.00;99.90
8892;DHT22;4482;54.332;10.118;2024-02-28T08:08:50;5.00;99.90
8892;DHT22;4482;54.332;10.118;2024-02-28T08:11:17;5.10;99.90
8892;DHT22;4482;54.332;10.118;2024-02-28T08:13:44;5.10;99.90
8892;DHT22;4482;54.332;10.118;2024-02-28T08:16:11;5.20;99.90
8892;DHT22;4482;54.332;10.118;2024-02-28T08:18:37;5.30;99.90
8892;DHT22;4482;54.332;10.118;2024-02-28T08:21:04;5.40;99.90
8892;DHT22;4482;54.332;10.118;2024-02-28T08:23:32;5.50;99.90
8892;DHT22;4482;54.332;10.118;2024-02-28T08:25:59;5.60;99.90
8892;DHT22;4482;54.332;10.118;2024-02-28T08:28:25;5.60;99.90
8892;DHT22;4482;54.332;10.118;2024-02-28T08:30:52;5.70;99.90
8892;DHT22;4482;54.332;10.118;2024-02-28T08:33:19;5.90;99.90
8892;DHT22;4482;54.332;10.118;2024-02-28T08:35:45;5.90;99.90
8892;DHT22;4482;54.332;10.118;2024-02-28T08:38:13;6.10;99.90
8892;DHT22;4482;54.332;10.118;2024-02-28T08:40:41;6.30;99.90
8892;DHT22;4482;54.332;10.118;2024-02-28T08:43:08;6.30;99.90
8892;DHT22;4482;54.332;10.118;2024-02-28T08:45:34;6.20;99.90
8892;DHT22;4482;54.332;10.118;2024-02-28T08:48:01;6.20;99.90
8892;DHT22;4482;54.332;10.118;2024-02-28T08:50:28;6.10;99.90
8892;DHT22;4482;54.332;10.118;2024-02-28T08:52:54;6.10;99.90
8892;DHT22;4482;54.332;10.118;2024-02-28T08:55:21;6.10;99.90
8892;DHT22;4482;54.332;10.118;2024-02-28T08:57:49;6.00;99.90
8892;DHT22;4482;54.332;10.118;2024-02-28T09:00:16;6.00;99.90
8892;DHT22;4482;54.332;10.118;2024-02-28T09:02:43;6.00;99.90
8892;DHT22;4482;54.332;10.118;2024-02-28T09:05:10;5.90;99.90
8892;DHT22;4482;54.332;10.118;2024-02-28T09:07:36;5.90;99.90
8892;DHT22;4482;54.332;10.118;2024-02-28T09:10:03;5.80;99.90
8892;DHT22;4482;54.332;10.118;2024-02-28T09:12:31;5.80;99.90
8892;DHT22;4482;54.332;10.118;2024-02-28T09:14:59;5.80;99.90
8892;DHT22;4482;54.332;10.118;2024-02-28T09:17:26;5.80;99.90
8892;DHT22;4482;54.332;10.118;2024-02-28T09:19:52;5.90;99.90
8892;DHT22;4482;54.332;10.118;2024-02-28T09:22:19;5.80;99.90
8892;DHT22;4482;54.332;10.118;2024-02-28T09:24:46;5.70;99.90
8892;DHT22;4482;54.332;10.118;2024-02-28T09:27:13;5.70;99.90
8892;DHT22;4482;54.332;10.118;2024-02-28T09:29:40;5.70;99.90
8892;DHT22;4482;54.332;10.118;2024-02-28T09:32:08;5.80;99.90
8892;DHT22;4482;54.332;10.118;2024-02-28T09:34:35;5.80;99.90
8892;DHT22;4482;54.332;10.118;2024-02-28T09:37:02;5.90;99.90
8892;DHT22;4482;54.332;10.118;2024-02-28T09:39:29;5.90;99.90
8892;DHT22;4482;54.332;10.118;2024-02-28T09:41:56;6.00;99.90
8892;DHT22;4482;54.332;10.118;2024-02-28T09:44:22;6.10;99.90
8892;DHT22;4482;54.332;10.118;2024-02-28T09:46:50;6.10;99.90
8892;DHT22;4482;54.332;10.118;2024-02-28T09:49:18;6.10;99.90
8892;DHT22;4482;54.332;10.118;2024-02-28T09:51:46;6.10;99.90
8892;DHT22;4482;54.332;10.118;2024-02-28T09:54:14;6.20;99.90
8892;DHT22;4482;54.332;10.118;2024-02-28T09:56:41;6.30;99.90
8892;DHT22;4482;54.332;10.118;2024-02-28T09:59:08;6.30;99.90
8892;DHT22;4482;54.332;10.118;2024-02-28T10:01:37;6.30;99.90
8892;DHT22;4482;54.332;10.118;2024-02-28T10:04:08;6.40;99.90
8892;DHT22;4482;54.332;10.118;2024-02-28T10:06:39;6.40;99.90
8892;DHT22;4482;54.332;10.118;2024-02-28T10:09:06;6.30;99.90
8892;DHT22;4482;54.332;10.118;2024-02-28T10:11:33;6.40;99.90
8892;DHT22;4482;54.332;10.118;2024-02-28T10:14:01;6.40;99.90
8892;DHT22;4482;54.332;10.118;2024-02-28T10:16:27;6.40;99.90
8892;DHT22;4482;54.332;10.118;2024-02-28T10:18:54;6.40;99.90
8892;DHT22;4482;54.332;10.118;2024-02-28T10:21:21;6.40;99.90
8892;DHT22;4482;54.332;10.118;2024-02-28T10:23:50;6.40;99.90
8892;DHT22;4482;54.332;10.118;2024-02-28T10:26:17;6.40;99.90
8892;DHT22;4482;54.332;10.118;2024-02-28T10:28:43;6.40;99.90
8892;DHT22;4482;54.332;10.118;2024-02-28T10:31:10;6.50;99.90
8892;DHT22;4482;54.332;10.118;2024-02-28T10:33:37;6.50;99.90
8892;DHT22;4482;54.332;10.118;2024-02-28T10:36:04;6.60;99.90
8892;DHT22;4482;54.332;10.118;2024-02-28T10:38:31;6.70;99.90
8892;DHT22;4482;54.332;10.118;2024-02-28T10:41:00;6.80;99.90
8892;DHT22;4482;54.332;10.118;2024-02-28T10:43:27;6.90;99.90
8892;DHT22;4482;54.332;10.118;2024-02-28T10:45:54;6.90;99.90
8892;DHT22;4482;54.332;10.118;2024-02-28T10:48:22;6.90;99.90
8892;DHT22;4482;54.332;10.118;2024-02-28T10:50:49;6.90;99.90
8892;DHT22;4482;54.332;10.118;2024-02-28T10:53:18;7.00;99.90
8892;DHT22;4482;54.332;10.118;2024-02-28T10:55:47;7.10;99.90
8892;DHT22;4482;54.332;10.118;2024-02-28T10:58:15;7.20;99.90
8892;DHT22;4482;54.332;10.118;2024-02-28T11:00:42;7.20;99.90
8892;DHT22;4482;54.332;10.118;2024-02-28T11:03:11;7.20;99.90
8892;DHT22;4482;54.332;10.118;2024-02-28T11:05:38;7.10;99.90
8892;DHT22;4482;54.332;10.118;2024-02-28T11:08:07;7.10;99.90
8892;DHT22;4482;54.332;10.118;2024-02-28T11:10:34;7.10;99.90
8892;DHT22;4482;54.332;10.118;2024-02-28T11:13:01;7.20;99.90
8892;DHT22;4482;54.332;10.118;2024-02-28T11:15:29;7.30;99.90
8892;DHT22;4482;54.332;10.118;2024-02-28T11:18:06;7.60;99.90
8892;DHT22;4482;54.332;10.118;2024-02-28T11:20:33;7.80;99.90
8892;DHT22;4482;54.332;10.118;2024-02-28T11:23:00;8.00;99.90
8892;DHT22;4482;54.332;10.118;2024-02-28T11:25:29;8.00;99.90
8892;DHT22;4482;54.332;10.118;2024-02-28T11:27:56;7.90;99.90
8892;DHT22;4482;54.332;10.118;2024-02-28T11:30:24;7.90;99.90
8892;DHT22;4482;54.332;10.118;2024-02-28T11:32:53;7.90;99.90
8892;DHT22;4482;54.332;10.118;2024-02-28T11:35:20;7.90;99.90
8892;DHT22;4482;54.332;10.118;2024-02-28T11:37:46;8.00;99.90
8892;DHT22;4482;54.332;10.118;2024-02-28T11:40:14;8.20;99.90
8892;DHT22;4482;54.332;10.118;2024-02-28T11:42:41;8.20;99.90
8892;DHT22;4482;54.332;10.118;2024-02-28T11:45:09;8.30;99.90
8892;DHT22;4482;54.332;10.118;2024-02-28T11:47:36;8.30;99.90
8892;DHT22;4482;54.332;10.118;2024-02-28T11:50:04;8.30;99.90
8892;DHT22;4482;54.332;10.118;2024-02-28T11:52:31;8.30;99.90
8892;DHT22;4482;54.332;10.118;2024-02-28T11:54:58;8.40;99.90
8892;DHT22;4482;54.332;10.118;2024-02-28T11:57:25;8.40;99.90
8892;DHT22;4482;54.332;10.118;2024-02-28T11:59:52;8.30;99.90
8892;DHT22;4482;54.332;10.118;2024-02-28T12:02:18;8.20;99.90
8892;DHT22;4482;54.332;10.118;2024-02-28T12:04:50;8.20;99.90
8892;DHT22;4482;54.332;10.118;2024-02-28T12:07:21;8.20;99.90
8892;DHT22;4482;54.332;10.118;2024-02-28T12:09:47;8.10;99.90
8892;DHT22;4482;54.332;10.118;2024-02-28T12:12:14;7.90;99.90
8892;DHT22;4482;54.332;10.118;2024-02-28T12:14:43;7.90;99.90
8892;DHT22;4482;54.332;10.118;2024-02-28T12:17:10;7.80;99.90
8892;DHT22;4482;54.332;10.118;2024-02-28T12:19:38;7.90;99.90
8892;DHT22;4482;54.332;10.118;2024-02-28T12:22:05;7.90;99.90
8892;DHT22;4482;54.332;10.118;2024-02-28T12:24:34;8.00;99.90
8892;DHT22;4482;54.332;10.118;2024-02-28T12:27:01;8.00;99.90
8892;DHT22;4482;54.332;10.118;2024-02-28T12:29:28;8.10;99.90
8892;DHT22;4482;54.332;10.118;2024-02-28T12:31:54;8.10;99.90
8892;DHT22;4482;54.332;10.118;2024-02-28T12:34:21;8.10;99.90
8892;DHT22;4482;54.332;10.118;2024-02-28T12:36:48;8.20;99.90
8892;DHT22;4482;54.332;10.118;2024-02-28T12:39:14;8.20;99.90
8892;DHT22;4482;54.332;10.118;2024-02-28T12:41:42;8.30;99.90
8892;DHT22;4482;54.332;10.118;2024-02-28T12:44:09;8.30;99.90
8892;DHT22;4482;54.332;10.118;2024-02-28T12:46:36;8.20;99.90
8892;DHT22;4482;54.332;10.118;2024-02-28T12:49:03;8.20;99.90
8892;DHT22;4482;54.332;10.118;2024-02-28T12:51:36;8.20;99.90
8892;DHT22;4482;54.332;10.118;2024-02-28T12:54:03;8.20;99.90
8892;DHT22;4482;54.332;10.118;2024-02-28T12:56:30;8.20;99.90
8892;DHT22;4482;54.332;10.118;2024-02-28T12:58:58;8.20;99.90
8892;DHT22;4482;54.332;10.118;2024-02-28T13:01:25;8.20;99.90
8892;DHT22;4482;54.332;10.118;2024-02-28T13:03:51;8.20;99.90
8892;DHT22;4482;54.332;10.118;2024-02-28T13:06:18;8.20;99.90
8892;DHT22;4482;54.332;10.118;2024-02-28T13:08:45;8.30;99.90
8892;DHT22;4482;54.332;10.118;2024-02-28T13:11:17;8.20;99.90
8892;DHT22;4482;54.332;10.118;2024-02-28T13:13:44;8.20;99.90
8892;DHT22;4482;54.332;10.118;2024-02-28T13:16:12;8.00;99.90
8892;DHT22;4482;54.332;10.118;2024-02-28T13:18:38;8.00;99.90
8892;DHT22;4482;54.332;10.118;2024-02-28T13:21:05;7.90;99.90
8892;DHT22;4482;54.332;10.118;2024-02-28T13:23:32;8.00;99.90
8892;DHT22;4482;54.332;10.118;2024-02-28T13:25:59;8.10;99.90
8892;DHT22;4482;54.332;10.118;2024-02-28T13:28:26;8.30;99.90
8892;DHT22;4482;54.332;10.118;2024-02-28T13:30:55;8.30;99.90
8892;DHT22;4482;54.332;10.118;2024-02-28T13:33:23;8.20;99.90
8892;DHT22;4482;54.332;10.118;2024-02-28T13:35:49;8.10;99.90
8892;DHT22;4482;54.332;10.118;2024-02-28T13:38:16;8.00;99.90
8892;DHT22;4482;54.332;10.118;2024-02-28T13:40:43;8.00;99.90
8892;DHT22;4482;54.332;10.118;2024-02-28T13:43:11;7.90;99.90
8892;DHT22;4482;54.332;10.118;2024-02-28T13:45:37;7.90;99.90
8892;DHT22;4482;54.332;10.118;2024-02-28T13:48:14;8.00;99.90
8892;DHT22;4482;54.332;10.118;2024-02-28T13:50:42;8.10;99.90
8892;DHT22;4482;54.332;10.118;2024-02-28T13:53:09;8.30;99.90
8892;DHT22;4482;54.332;10.118;2024-02-28T13:55:36;8.40;99.90
8892;DHT22;4482;54.332;10.118;2024-02-28T13:58:03;8.40;99.90
8892;DHT22;4482;54.332;10.118;2024-02-28T14:00:30;8.50;99.90
8892;DHT22;4482;54.332;10.118;2024-02-28T14:02:57;8.50;99.90
8892;DHT22;4482;54.332;10.118;2024-02-28T14:05:24;8.50;99.90
8892;DHT22;4482;54.332;10.118;2024-02-28T14:07:52;8.40;99.90
8892;DHT22;4482;54.332;10.118;2024-02-28T14:10:19;8.30;99.90
8892;DHT22;4482;54.332;10.118;2024-02-28T14:12:47;8.30;99.90
8892;DHT22;4482;54.332;10.118;2024-02-28T14:15:14;8.30;99.90
8892;DHT22;4482;54.332;10.118;2024-02-28T14:17:40;8.20;99.90
8892;DHT22;4482;54.332;10.118;2024-02-28T14:20:08;8.40;99.90
8892;DHT22;4482;54.332;10.118;2024-02-28T14:22:35;8.50;99.90
8892;DHT22;4482;54.332;10.118;2024-02-28T14:25:03;8.50;99.90
8892;DHT22;4482;54.332;10.118;2024-02-28T14:27:30;8.60;99.90
8892;DHT22;4482;54.332;10.118;2024-02-28T14:29:59;8.50;99.90
8892;DHT22;4482;54.332;10.118;2024-02-28T14:32:25;8.30;99.90
8892;DHT22;4482;54.332;10.118;2024-02-28T14:34:52;8.30;99.90
8892;DHT22;4482;54.332;10.118;2024-02-28T14:37:19;8.30;99.90
8892;DHT22;4482;54.332;10.118;2024-02-28T14:39:46;8.20;99.90
8892;DHT22;4482;54.332;10.118;2024-02-28T14:42:14;8.20;99.90
8892;DHT22;4482;54.332;10.118;2024-02-28T14:44:41;8.20;99.90
8892;DHT22;4482;54.332;10.118;2024-02-28T14:47:07;8.10;99.90
8892;DHT22;4482;54.332;10.118;2024-02-28T14:49:34;8.00;99.90
8892;DHT22;4482;54.332;10.118;2024-02-28T14:52:02;8.00;99.90
8892;DHT22;4482;54.332;10.118;2024-02-28T14:54:29;7.90;99.90
8892;DHT22;4482;54.332;10.118;2024-02-28T14:56:56;7.80;99.90
8892;DHT22;4482;54.332;10.118;2024-02-28T14:59:24;7.80;99.90
8892;DHT22;4482;54.332;10.118;2024-02-28T15:01:50;7.80;99.90
8892;DHT22;4482;54.332;10.118;2024-02-28T15:04:18;7.80;99.90
8892;DHT22;4482;54.332;10.118;2024-02-28T15:06:45;7.80;99.90
8892;DHT22;4482;54.332;10.118;2024-02-28T15:09:12;7.80;99.90
8892;DHT22;4482;54.332;10.118;2024-02-28T15:11:39;7.70;99.90
8892;DHT22;4482;54.332;10.118;2024-02-28T15:14:06;7.70;99.90
8892;DHT22;4482;54.332;10.118;2024-02-28T15:16:34;7.60;99.90
8892;DHT22;4482;54.332;10.118;2024-02-28T15:19:01;7.70;99.90
8892;DHT22;4482;54.332;10.118;2024-02-28T15:21:27;7.70;99.90
8892;DHT22;4482;54.332;10.118;2024-02-28T15:23:54;7.60;99.90
8892;DHT22;4482;54.332;10.118;2024-02-28T15:26:21;7.60;99.90
8892;DHT22;4482;54.332;10.118;2024-02-28T15:28:46;7.60;99.90
8892;DHT22;4482;54.332;10.118;2024-02-28T15:31:13;7.60;99.90
8892;DHT22;4482;54.332;10.118;2024-02-28T15:33:41;7.50;99.90
8892;DHT22;4482;54.332;10.118;2024-02-28T15:36:08;7.40;99.90
8892;DHT22;4482;54.332;10.118;2024-02-28T15:38:35;7.40;99.90
8892;DHT22;4482;54.332;10.118;2024-02-28T15:41:02;7.30;99.90
8892;DHT22;4482;54.332;10.118;2024-02-28T15:43:28;7.30;99.90
8892;DHT22;4482;54.332;10.118;2024-02-28T15:45:55;7.30;99.90
8892;DHT22;4482;54.332;10.118;2024-02-28T15:48:22;7.30;99.90
8892;DHT22;4482;54.332;10.118;2024-02-28T15:50:50;7.30;99.90
8892;DHT22;4482;54.332;10.118;2024-02-28T15:53:18;7.30;99.90
8892;DHT22;4482;54.332;10.118;2024-02-28T15:55:45;7.30;99.90
8892;DHT22;4482;54.332;10.118;2024-02-28T15:58:11;7.20;99.90
8892;DHT22;4482;54.332;10.118;2024-02-28T16:00:38;7.20;99.90